sensor_id;sensor_type;location;lat;lon;timestamp;pressure;altitude;pressure_sealevel;temperature;humidity
6200;BME280;3133;43.214;27.906;2023-04-19T00:02:13;100089.41;;;12.40;100.00
6200;BME280;3133;43.214;27.906;2023-04-19T00:04:42;100095.31;;;12.53;100.00
6200;BME280;3133;43.214;27.906;2023-04-19T00:07:10;100104.00;;;12.56;100.00
6200;BME280;3133;43.214;27.906;2023-04-19T00:09:37;100110.81;;;12.66;100.00
6200;BME280;3133;43.214;27.906;2023-04-19T00:12:06;100104.09;;;12.49;100.00
6200;BME280;3133;43.214;27.906;2023-04-19T00:14:32;100028.91;;;12.06;100.00
6200;BME280;3133;43.214;27.906;2023-04-19T00:17:00;100074.44;;;12.48;100.00
6200;BME280;3133;43.214;27.906;2023-04-19T00:19:26;99899.97;;;11.46;100.00
6200;BME280;3133;43.214;27.906;2023-04-19T00:21:55;100090.94;;;12.53;100.00
6200;BME280;3133;43.214;27.906;2023-04-19T00:24:24;100074.56;;;12.42;100.00
6200;BME280;3133;43.214;27.906;2023-04-19T00:26:51;100021.13;;;12.02;100.00
6200;BME280;3133;43.214;27.906;2023-04-19T00:29:18;100012.56;;;11.91;100.00
6200;BME280;3133;43.214;27.906;2023-04-19T00:31:45;100094.66;;;12.37;100.00
6200;BME280;3133;43.214;27.906;2023-04-19T00:34:11;100080.69;;;12.40;100.00
6200;BME280;3133;43.214;27.906;2023-04-19T00:36:38;100080.00;;;12.27;100.00
6200;BME280;3133;43.214;27.906;2023-04-19T00:39:07;100054.06;;;12.12;100.00
6200;BME280;3133;43.214;27.906;2023-04-19T00:41:34;100084.09;;;12.45;100.00
6200;BME280;3133;43.214;27.906;2023-04-19T00:44:00;100090.31;;;12.38;100.00
6200;BME280;3133;43.214;27.906;2023-04-19T00:46:27;100087.06;;;12.20;100.00
6200;BME280;3133;43.214;27.906;2023-04-19T00:48:54;100073.31;;;12.06;100.00
6200;BME280;3133;43.214;27.906;2023-04-19T00:51:21;100073.28;;;12.08;100.00
6200;BME280;3133;43.214;27.906;2023-04-19T00:53:49;100087.88;;;12.25;100.00
6200;BME280;3133;43.214;27.906;2023-04-19T00:56:18;100091.44;;;12.18;100.00
6200;BME280;3133;43.214;27.906;2023-04-19T00:58:48;100060.47;;;11.91;100.00
6200;BME280;3133;43.214;27.906;2023-04-19T01:01:15;100079.00;;;11.69;100.00
6200;BME280;3133;43.214;27.906;2023-04-19T01:03:43;100073.66;;;11.79;100.00
6200;BME280;3133;43.214;27.906;2023-04-19T01:06:10;100080.69;;;11.76;100.00
6200;BME280;3133;43.214;27.906;2023-04-19T01:08:37;100077.88;;;11.91;100.00
6200;BME280;3133;43.214;27.906;2023-04-19T01:11:04;100059.56;;;11.94;100.00
6200;BME280;3133;43.214;27.906;2023-04-19T01:13:33;100043.03;;;11.92;100.00
6200;BME280;3133;43.214;27.906;2023-04-19T01:16:01;100072.63;;;11.92;100.00
6200;BME280;3133;43.214;27.906;2023-04-19T01:18:28;100065.56;;;11.99;100.00
6200;BME280;3133;43.214;27.906;2023-04-19T01:21:01;100055.03;;;12.06;100.00
6200;BME280;3133;43.214;27.906;2023-04-19T01:23:29;100057.69;;;12.02;100.00
6200;BME280;3133;43.214;27.906;2023-04-19T01:25:56;100054.06;;;12.12;100.00
6200;BME280;3133;43.214;27.906;2023-04-19T01:28:25;100020.56;;;11.77;100.00
6200;BME280;3133;43.214;27.906;2023-04-19T01:30:51;100054.88;;;12.15;100.00
6200;BME280;3133;43.214;27.906;2023-04-19T01:33:19;100052.19;;;12.20;100.00
6200;BME280;3133;43.214;27.906;2023-04-19T01:35:46;100046.91;;;12.26;100.00
6200;BME280;3133;43.214;27.906;2023-04-19T01:38:13;100050.31;;;12.32;100.00
6200;BME280;3133;43.214;27.906;2023-04-19T01:40:42;100043.16;;;12.42;100.00
6200;BME280;3133;43.214;27.906;2023-04-19T01:43:11;100004.25;;;12.24;100.00
6200;BME280;3133;43.214;27.906;2023-04-19T01:45:38;100042.13;;;12.52;100.00
6200;BME280;3133;43.214;27.906;2023-04-19T01:48:05;100031.06;;;12.37;100.00
6200;BME280;3133;43.214;27.906;2023-04-19T01:50:32;100028.41;;;12.38;100.00
6200;BME280;3133;43.214;27.906;2023-04-19T01:52:59;99981.25;;;11.88;100.00
6200;BME280;3133;43.214;27.906;2023-04-19T01:55:26;100029.13;;;11.88;100.00
6200;BME280;3133;43.214;27.906;2023-04-19T01:57:54;100045.41;;;12.08;100.00
6200;BME280;3133;43.214;27.906;2023-04-19T02:00:21;100042.16;;;11.91;100.00
6200;BME280;3133;43.214;27.906;2023-04-19T02:02:48;100041.97;;;12.05;100.00
6200;BME280;3133;43.214;27.906;2023-04-19T02:05:15;100025.44;;;12.03;100.00
6200;BME280;3133;43.214;27.906;2023-04-19T02:07:42;100050.44;;;12.23;100.00
6200;BME280;3133;43.214;27.906;2023-04-19T02:10:09;100012.28;;;12.10;100.00
6200;BME280;3133;43.214;27.906;2023-04-19T02:12:36;100049.59;;;12.20;100.00
6200;BME280;3133;43.214;27.906;2023-04-19T02:15:06;100001.16;;;11.98;100.00
6200;BME280;3133;43.214;27.906;2023-04-19T02:17:33;100026.50;;;11.90;100.00
6200;BME280;3133;43.214;27.906;2023-04-19T02:20:00;100031.00;;;11.80;100.00
6200;BME280;3133;43.214;27.906;2023-04-19T02:22:29;100008.47;;;11.72;100.00
6200;BME280;3133;43.214;27.906;2023-04-19T02:24:56;99974.50;;;11.72;100.00
6200;BME280;3133;43.214;27.906;2023-04-19T02:27:22;100035.25;;;11.86;100.00
6200;BME280;3133;43.214;27.906;2023-04-19T02:29:49;100011.91;;;11.77;100.00
6200;BME280;3133;43.214;27.906;2023-04-19T02:32:19;100002.19;;;11.83;100.00
6200;BME280;3133;43.214;27.906;2023-04-19T02:34:45;100014.94;;;12.07;100.00
6200;BME280;3133;43.214;27.906;2023-04-19T02:37:12;100016.81;;;11.96;100.00
6200;BME280;3133;43.214;27.906;2023-04-19T02:39:39;100014.22;;;11.98;100.00
6200;BME280;3133;43.214;27.906;2023-04-19T02:42:07;100011.66;;;11.93;100.00
6200;BME280;3133;43.214;27.906;2023-04-19T02:44:33;100026.41;;;11.97;100.00
6200;BME280;3133;43.214;27.906;2023-04-19T02:47:00;99972.03;;;11.60;100.00
6200;BME280;3133;43.214;27.906;2023-04-19T02:49:29;100018.09;;;11.68;100.00
6200;BME280;3133;43.214;27.906;2023-04-19T02:51:59;100019.91;;;11.62;100.00
6200;BME280;3133;43.214;27.906;2023-04-19T02:54:25;100023.19;;;11.79;100.00
6200;BME280;3133;43.214;27.906;2023-04-19T02:56:52;100023.97;;;11.84;100.00
6200;BME280;3133;43.214;27.906;2023-04-19T02:59:19;99921.06;;;11.31;100.00
6200;BME280;3133;43.214;27.906;2023-04-19T03:01:46;100022.44;;;11.69;100.00
6200;BME280;3133;43.214;27.906;2023-04-19T03:04:13;100018.00;;;11.76;100.00
6200;BME280;3133;43.214;27.906;2023-04-19T03:06:41;99965.94;;;11.57;100.00
6200;BME280;3133;43.214;27.906;2023-04-19T03:09:08;99995.97;;;11.93;100.00
6200;BME280;3133;43.214;27.906;2023-04-19T03:11:35;99977.78;;;11.86;100.00
6200;BME280;3133;43.214;27.906;2023-04-19T03:14:03;100017.31;;;12.22;100.00
6200;BME280;3133;43.214;27.906;2023-04-19T03:16:29;99981.22;;;11.91;100.00
6200;BME280;3133;43.214;27.906;2023-04-19T03:18:56;100018.31;;;12.14;100.00
6200;BME280;3133;43.214;27.906;2023-04-19T03:21:23;100026.56;;;11.87;100.00
6200;BME280;3133;43.214;27.906;2023-04-19T03:23:55;100009.97;;;11.88;100.00
6200;BME280;3133;43.214;27.906;2023-04-19T03:26:22;100011.91;;;11.75;100.00
6200;BME280;3133;43.214;27.906;2023-04-19T03:28:49;100017.81;;;11.89;100.00
6200;BME280;3133;43.214;27.906;2023-04-19T03:31:16;100010.88;;;11.87;100.00
6200;BME280;3133;43.214;27.906;2023-04-19T03:33:42;100018.44;;;12.05;100.00
6200;BME280;3133;43.214;27.906;2023-04-19T03:36:09;100008.97;;;11.96;100.00
6200;BME280;3133;43.214;27.906;2023-04-19T03:38:36;99963.09;;;11.79;100.00
6200;BME280;3133;43.214;27.906;2023-04-19T03:41:04;100012.22;;;12.13;100.00
6200;BME280;3133;43.214;27.906;2023-04-19T03:43:31;100018.31;;;12.14;100.00
6200;BME280;3133;43.214;27.906;2023-04-19T03:45:58;99989.91;;;11.90;100.00
6200;BME280;3133;43.214;27.906;2023-04-19T03:48:25;100016.59;;;12.11;100.00
6200;BME280;3133;43.214;27.906;2023-04-19T03:50:52;100025.22;;;12.19;100.00
6200;BME280;3133;43.214;27.906;2023-04-19T03:53:19;100000.09;;;12.11;100.00
6200;BME280;3133;43.214;27.906;2023-04-19T03:55:46;100000.16;;;12.06;100.00
6200;BME280;3133;43.214;27.906;2023-04-19T03:58:14;99981.84;;;12.06;100.00
6200;BME280;3133;43.214;27.906;2023-04-19T04:00:41;100025.28;;;12.15;100.00
6200;BME280;3133;43.214;27.906;2023-04-19T04:03:08;100028.00;;;12.09;100.00
6200;BME280;3133;43.214;27.906;2023-04-19T04:05:34;100020.34;;;11.95;100.00
6200;BME280;3133;43.214;27.906;2023-04-19T04:08:01;100018.28;;;12.15;100.00
6200;BME280;3133;43.214;27.906;2023-04-19T04:10:29;100026.00;;;12.24;100.00
6200;BME280;3133;43.214;27.906;2023-04-19T04:12:56;100035.94;;;12.01;100.00
6200;BME280;3133;43.214;27.906;2023-04-19T04:15:24;100027.69;;;11.68;100.00
6200;BME280;3133;43.214;27.906;2023-04-19T04:17:51;100025.06;;;11.68;100.00
6200;BME280;3133;43.214;27.906;2023-04-19T04:20:18;100005.50;;;11.27;100.00
6200;BME280;3133;43.214;27.906;2023-04-19T04:22:45;100025.25;;;11.49;100.00
6200;BME280;3133;43.214;27.906;2023-04-19T04:25:14;100003.34;;;11.61;100.00
6200;BME280;3133;43.214;27.906;2023-04-19T04:27:41;99978.94;;;11.64;100.00
6200;BME280;3133;43.214;27.906;2023-04-19T04:30:09;99967.59;;;11.65;100.00
6200;BME280;3133;43.214;27.906;2023-04-19T04:32:39;100032.47;;;11.99;100.00
6200;BME280;3133;43.214;27.906;2023-04-19T04:35:08;100028.16;;;11.97;100.00
6200;BME280;3133;43.214;27.906;2023-04-19T04:37:36;100026.53;;;11.88;100.00
6200;BME280;3133;43.214;27.906;2023-04-19T04:40:06;100017.00;;;11.84;100.00
6200;BME280;3133;43.214;27.906;2023-04-19T04:42:34;100005.81;;;11.76;100.00
6200;BME280;3133;43.214;27.906;2023-04-19T04:45:02;99977.19;;;11.64;100.00
6200;BME280;3133;43.214;27.906;2023-04-19T04:47:30;100036.00;;;11.97;100.00
6200;BME280;3133;43.214;27.906;2023-04-19T04:49:59;100010.91;;;11.85;100.00
6200;BME280;3133;43.214;27.906;2023-04-19T04:52:27;100003.13;;;11.81;100.00
6200;BME280;3133;43.214;27.906;2023-04-19T04:55:01;100031.59;;;11.99;100.00
6200;BME280;3133;43.214;27.906;2023-04-19T04:57:28;99990.25;;;11.63;100.00
6200;BME280;3133;43.214;27.906;2023-04-19T05:00:03;99974.59;;;11.63;100.00
6200;BME280;3133;43.214;27.906;2023-04-19T05:02:32;100033.44;;;11.94;100.00
6200;BME280;3133;43.214;27.906;2023-04-19T05:05:01;100036.81;;;11.99;100.00
6200;BME280;3133;43.214;27.906;2023-04-19T05:07:36;99923.63;;;11.34;100.00
6200;BME280;3133;43.214;27.906;2023-04-19T05:10:07;100025.50;;;12.00;100.00
6200;BME280;3133;43.214;27.906;2023-04-19T05:12:41;100038.38;;;12.12;100.00
6200;BME280;3133;43.214;27.906;2023-04-19T05:15:08;99980.41;;;11.86;100.00
6200;BME280;3133;43.214;27.906;2023-04-19T05:18:09;99965.72;;;11.79;100.00
6200;BME280;3133;43.214;27.906;2023-04-19T05:20:37;100034.84;;;12.16;100.00
6200;BME280;3133;43.214;27.906;2023-04-19T05:23:04;100037.69;;;11.99;100.00
6200;BME280;3133;43.214;27.906;2023-04-19T05:25:32;100037.09;;;11.79;100.00
6200;BME280;3133;43.214;27.906;2023-04-19T05:28:00;99988.50;;;11.68;100.00
6200;BME280;3133;43.214;27.906;2023-04-19T05:30:33;100040.16;;;12.10;100.00
6200;BME280;3133;43.214;27.906;2023-04-19T05:33:09;100003.09;;;11.82;100.00
6200;BME280;3133;43.214;27.906;2023-04-19T05:35:41;99943.44;;;11.50;100.00
6200;BME280;3133;43.214;27.906;2023-04-19T05:38:10;99902.72;;;11.37;100.00
6200;BME280;3133;43.214;27.906;2023-04-19T05:41:01;100045.06;;;12.32;100.00
6200;BME280;3133;43.214;27.906;2023-04-19T05:43:35;100043.19;;;12.39;100.00
6200;BME280;3133;43.214;27.906;2023-04-19T05:46:06;100013.00;;;12.21;100.00
6200;BME280;3133;43.214;27.906;2023-04-19T05:48:39;100049.44;;;12.32;100.00
6200;BME280;3133;43.214;27.906;2023-04-19T05:51:23;100032.91;;;12.30;100.00
6200;BME280;3133;43.214;27.906;2023-04-19T05:53:58;100046.84;;;12.29;100.00
6200;BME280;3133;43.214;27.906;2023-04-19T05:56:26;100033.91;;;12.20;100.00
6200;BME280;3133;43.214;27.906;2023-04-19T05:58:54;100042.78;;;12.10;100.00
6200;BME280;3133;43.214;27.906;2023-04-19T06:01:27;100049.59;;;12.21;100.00
6200;BME280;3133;43.214;27.906;2023-04-19T06:03:54;100003.75;;;11.96;100.00
6200;BME280;3133;43.214;27.906;2023-04-19T06:06:34;99973.56;;;11.77;100.00
6200;BME280;3133;43.214;27.906;2023-04-19T06:09:04;100053.97;;;12.18;100.00
6200;BME280;3133;43.214;27.906;2023-04-19T06:11:41;100055.66;;;12.22;100.00
6200;BME280;3133;43.214;27.906;2023-04-19T06:14:17;100059.75;;;12.40;100.00
6200;BME280;3133;43.214;27.906;2023-04-19T06:16:54;100059.06;;;12.30;100.00
6200;BME280;3133;43.214;27.906;2023-04-19T06:19:24;100062.81;;;12.11;100.00
6200;BME280;3133;43.214;27.906;2023-04-19T06:21:54;100060.94;;;12.19;100.00
6200;BME280;3133;43.214;27.906;2023-04-19T06:24:21;100039.25;;;12.12;100.00
6200;BME280;3133;43.214;27.906;2023-04-19T06:26:50;99991.16;;;11.60;100.00
6200;BME280;3133;43.214;27.906;2023-04-19T06:29:19;100066.28;;;12.13;100.00
6200;BME280;3133;43.214;27.906;2023-04-19T06:31:51;100031.56;;;12.02;100.00
6200;BME280;3133;43.214;27.906;2023-04-19T06:34:19;100068.69;;;12.25;100.00
6200;BME280;3133;43.214;27.906;2023-04-19T06:36:47;100063.44;;;12.26;100.00
6200;BME280;3133;43.214;27.906;2023-04-19T06:39:17;100003.06;;;11.84;100.00
6200;BME280;3133;43.214;27.906;2023-04-19T06:41:45;100070.78;;;12.02;100.00
6200;BME280;3133;43.214;27.906;2023-04-19T06:44:12;100044.50;;;12.09;100.00
6200;BME280;3133;43.214;27.906;2023-04-19T06:46:39;100053.91;;;12.22;100.00
6200;BME280;3133;43.214;27.906;2023-04-19T06:49:13;100020.13;;;12.10;100.00
6200;BME280;3133;43.214;27.906;2023-04-19T06:51:41;100078.84;;;12.46;100.00
6200;BME280;3133;43.214;27.906;2023-04-19T06:54:09;100044.25;;;12.29;100.00
6200;BME280;3133;43.214;27.906;2023-04-19T06:56:41;100085.53;;;12.65;100.00
6200;BME280;3133;43.214;27.906;2023-04-19T06:59:11;100080.28;;;12.67;100.00
6200;BME280;3133;43.214;27.906;2023-04-19T07:01:38;100079.19;;;12.81;100.00
6200;BME280;3133;43.214;27.906;2023-04-19T07:04:25;100052.41;;;12.63;100.00
6200;BME280;3133;43.214;27.906;2023-04-19T07:07:18;100092.31;;;12.77;100.00
6200;BME280;3133;43.214;27.906;2023-04-19T07:09:55;99968.00;;;12.01;100.00
6200;BME280;3133;43.214;27.906;2023-04-19T07:12:33;100101.16;;;12.70;100.00
6200;BME280;3133;43.214;27.906;2023-04-19T07:15:03;100094.88;;;12.80;100.00
6200;BME280;3133;43.214;27.906;2023-04-19T07:17:51;100095.03;;;12.69;100.00
6200;BME280;3133;43.214;27.906;2023-04-19T07:20:26;100044.97;;;12.37;100.00
6200;BME280;3133;43.214;27.906;2023-04-19T07:23:04;100044.78;;;12.51;100.00
6200;BME280;3133;43.214;27.906;2023-04-19T07:25:39;100064.50;;;12.71;100.00
6200;BME280;3133;43.214;27.906;2023-04-19T07:28:43;100081.53;;;12.96;100.00
6200;BME280;3133;43.214;27.906;2023-04-19T07:31:27;100104.13;;;13.02;100.00
6200;BME280;3133;43.214;27.906;2023-04-19T07:34:27;99988.03;;;12.54;100.00
6200;BME280;3133;43.214;27.906;2023-04-19T07:37:03;100097.44;;;13.36;100.00
6200;BME280;3133;43.214;27.906;2023-04-19T07:40:26;100056.34;;;12.89;100.00
6200;BME280;3133;43.214;27.906;2023-04-19T07:43:29;100110.06;;;13.13;100.00
6200;BME280;3133;43.214;27.906;2023-04-19T07:46:14;100107.72;;;12.95;100.00
6200;BME280;3133;43.214;27.906;2023-04-19T07:51:36;100115.16;;;12.66;100.00
6200;BME280;3133;43.214;27.906;2023-04-19T07:54:09;100005.25;;;12.14;100.00
6200;BME280;3133;43.214;27.906;2023-04-19T07:56:40;100117.38;;;12.91;100.00
6200;BME280;3133;43.214;27.906;2023-04-19T07:59:07;100119.56;;;12.64;100.00
6200;BME280;3133;43.214;27.906;2023-04-19T08:01:35;100126.41;;;12.72;100.00
6200;BME280;3133;43.214;27.906;2023-04-19T08:04:02;100068.94;;;12.08;100.00
6200;BME280;3133;43.214;27.906;2023-04-19T08:06:29;100103.53;;;12.27;100.00
6200;BME280;3133;43.214;27.906;2023-04-19T08:08:57;100131.31;;;12.34;100.00
6200;BME280;3133;43.214;27.906;2023-04-19T08:11:24;100021.59;;;11.63;100.00
6200;BME280;3133;43.214;27.906;2023-04-19T08:13:51;100133.16;;;12.27;100.00
6200;BME280;3133;43.214;27.906;2023-04-19T08:16:19;100133.44;;;12.06;100.00
6200;BME280;3133;43.214;27.906;2023-04-19T08:18:48;100125.56;;;12.08;100.00
6200;BME280;3133;43.214;27.906;2023-04-19T08:21:16;100124.75;;;12.03;100.00
6200;BME280;3133;43.214;27.906;2023-04-19T08:23:43;100076.53;;;11.53;100.00
6200;BME280;3133;43.214;27.906;2023-04-19T08:26:10;100129.25;;;11.92;100.00
6200;BME280;3133;43.214;27.906;2023-04-19T08:28:37;99995.97;;;11.22;100.00
6200;BME280;3133;43.214;27.906;2023-04-19T08:31:05;100106.66;;;11.86;100.00
6200;BME280;3133;43.214;27.906;2023-04-19T08:33:32;100129.94;;;12.06;100.00
6200;BME280;3133;43.214;27.906;2023-04-19T08:36:02;100133.44;;;12.05;100.00
6200;BME280;3133;43.214;27.906;2023-04-19T08:38:30;100109.28;;;11.86;100.00
6200;BME280;3133;43.214;27.906;2023-04-19T08:40:58;100037.50;;;11.44;100.00
6200;BME280;3133;43.214;27.906;2023-04-19T08:43:25;100068.63;;;11.61;100.00
6200;BME280;3133;43.214;27.906;2023-04-19T08:45:58;100009.22;;;11.05;100.00
6200;BME280;3133;43.214;27.906;2023-04-19T08:48:26;100131.13;;;11.81;100.00
6200;BME280;3133;43.214;27.906;2023-04-19T08:50:55;100120.59;;;11.87;100.00
6200;BME280;3133;43.214;27.906;2023-04-19T08:53:27;100114.72;;;11.70;100.00
6200;BME280;3133;43.214;27.906;2023-04-19T08:55:54;100114.50;;;11.86;100.00
6200;BME280;3133;43.214;27.906;2023-04-19T08:58:23;100102.38;;;11.82;100.00
6200;BME280;3133;43.214;27.906;2023-04-19T09:00:50;100121.25;;;12.04;100.00
6200;BME280;3133;43.214;27.906;2023-04-19T09:03:17;100103.09;;;11.95;100.00
6200;BME280;3133;43.214;27.906;2023-04-19T09:05:44;100078.03;;;11.77;100.00
6200;BME280;3133;43.214;27.906;2023-04-19T09:08:21;100128.91;;;12.19;100.00
6200;BME280;3133;43.214;27.906;2023-04-19T09:10:54;100126.38;;;12.13;100.00
6200;BME280;3133;43.214;27.906;2023-04-19T09:13:21;100073.50;;;11.93;100.00
6200;BME280;3133;43.214;27.906;2023-04-19T09:15:48;100083.63;;;12.17;100.00
6200;BME280;3133;43.214;27.906;2023-04-19T09:18:16;100140.69;;;12.52;100.00
6200;BME280;3133;43.214;27.906;2023-04-19T09:20:44;99944.47;;;11.37;100.00
6200;BME280;3133;43.214;27.906;2023-04-19T09:23:15;100144.88;;;12.62;100.00
6200;BME280;3133;43.214;27.906;2023-04-19T09:25:53;100093.78;;;12.38;100.00
6200;BME280;3133;43.214;27.906;2023-04-19T09:28:21;100137.75;;;12.71;100.00
6200;BME280;3133;43.214;27.906;2023-04-19T09:30:47;100137.84;;;12.65;100.00
6200;BME280;3133;43.214;27.906;2023-04-19T09:33:30;100052.19;;;12.23;100.00
6200;BME280;3133;43.214;27.906;2023-04-19T09:35:58;100111.09;;;12.47;100.00
6200;BME280;3133;43.214;27.906;2023-04-19T09:38:26;100136.25;;;12.55;100.00
6200;BME280;3133;43.214;27.906;2023-04-19T09:41:06;100113.75;;;12.45;100.00
6200;BME280;3133;43.214;27.906;2023-04-19T09:43:33;100145.97;;;12.47;100.00
6200;BME280;3133;43.214;27.906;2023-04-19T09:46:00;100085.81;;;11.85;100.00
6200;BME280;3133;43.214;27.906;2023-04-19T09:48:27;100134.16;;;12.16;100.00
6200;BME280;3133;43.214;27.906;2023-04-19T09:50:55;100133.25;;;12.20;100.00
6200;BME280;3133;43.214;27.906;2023-04-19T09:53:23;99993.13;;;11.43;100.00
6200;BME280;3133;43.214;27.906;2023-04-19T09:55:50;100117.53;;;12.23;100.00
6200;BME280;3133;43.214;27.906;2023-04-19T09:58:20;100138.34;;;12.29;100.00
6200;BME280;3133;43.214;27.906;2023-04-19T10:00:48;100101.22;;;12.03;100.00
6200;BME280;3133;43.214;27.906;2023-04-19T10:03:17;100097.75;;;12.04;100.00
6200;BME280;3133;43.214;27.906;2023-04-19T10:05:46;100108.13;;;12.10;100.00
6200;BME280;3133;43.214;27.906;2023-04-19T10:08:13;100134.81;;;12.33;100.00
6200;BME280;3133;43.214;27.906;2023-04-19T10:10:44;100067.34;;;11.97;100.00
6200;BME280;3133;43.214;27.906;2023-04-19T10:13:16;100120.19;;;12.18;100.00
6200;BME280;3133;43.214;27.906;2023-04-19T10:15:48;100129.56;;;12.36;100.00
6200;BME280;3133;43.214;27.906;2023-04-19T10:18:15;100128.44;;;12.52;100.00
6200;BME280;3133;43.214;27.906;2023-04-19T10:20:48;100093.59;;;12.50;100.00
6200;BME280;3133;43.214;27.906;2023-04-19T10:23:17;100125.34;;;12.85;100.00
6200;BME280;3133;43.214;27.906;2023-04-19T10:25:45;100134.75;;;12.95;100.00
6200;BME280;3133;43.214;27.906;2023-04-19T10:28:12;100051.84;;;12.44;100.00
6200;BME280;3133;43.214;27.906;2023-04-19T10:30:53;100112.81;;;12.49;100.00
6200;BME280;3133;43.214;27.906;2023-04-19T10:33:25;100116.16;;;12.57;100.00
6200;BME280;3133;43.214;27.906;2023-04-19T10:35:55;100090.19;;;12.47;100.00
6200;BME280;3133;43.214;27.906;2023-04-19T10:38:35;100139.34;;;12.81;100.00
6200;BME280;3133;43.214;27.906;2023-04-19T10:41:03;100080.91;;;12.24;100.00
6200;BME280;3133;43.214;27.906;2023-04-19T10:43:37;100142.91;;;12.76;100.00
6200;BME280;3133;43.214;27.906;2023-04-19T10:46:08;100122.94;;;12.70;100.00
6200;BME280;3133;43.214;27.906;2023-04-19T10:48:38;100148.75;;;12.93;100.00
6200;BME280;3133;43.214;27.906;2023-04-19T10:51:13;100099.69;;;12.51;100.00
6200;BME280;3133;43.214;27.906;2023-04-19T10:53:56;100011.59;;;11.96;100.00
6200;BME280;3133;43.214;27.906;2023-04-19T10:59:36;100146.84;;;13.04;100.00
6200;BME280;3133;43.214;27.906;2023-04-19T11:02:27;100136.59;;;12.89;100.00
6200;BME280;3133;43.214;27.906;2023-04-19T11:05:01;100119.25;;;12.83;100.00
6200;BME280;3133;43.214;27.906;2023-04-19T11:07:36;100109.50;;;12.93;100.00
6200;BME280;3133;43.214;27.906;2023-04-19T11:10:04;100141.44;;;13.15;100.00
6200;BME280;3133;43.214;27.906;2023-04-19T11:12:33;100049.81;;;12.64;100.00
6200;BME280;3133;43.214;27.906;2023-04-19T11:15:00;100139.63;;;13.20;100.00
6200;BME280;3133;43.214;27.906;2023-04-19T11:17:29;100070.06;;;12.52;100.00
6200;BME280;3133;43.214;27.906;2023-04-19T11:19:58;100148.97;;;12.79;100.00
6200;BME280;3133;43.214;27.906;2023-04-19T11:22:29;100151.50;;;12.85;100.00
6200;BME280;3133;43.214;27.906;2023-04-19T11:25:04;100136.75;;;12.81;100.00
6200;BME280;3133;43.214;27.906;2023-04-19T11:27:32;100136.84;;;12.74;100.00
6200;BME280;3133;43.214;27.906;2023-04-19T11:30:03;100154.03;;;12.91;100.00
6200;BME280;3133;43.214;27.906;2023-04-19T11:32:32;100131.13;;;12.49;100.00
6200;BME280;3133;43.214;27.906;2023-04-19T11:35:05;100152.66;;;12.66;100.00
6200;BME280;3133;43.214;27.906;2023-04-19T11:37:42;100156.50;;;12.41;100.00
6200;BME280;3133;43.214;27.906;2023-04-19T11:40:14;100077.84;;;11.92;100.00
6200;BME280;3133;43.214;27.906;2023-04-19T11:42:41;99985.63;;;11.16;100.00
6200;BME280;3133;43.214;27.906;2023-04-19T11:45:09;100155.09;;;12.17;100.00
6200;BME280;3133;43.214;27.906;2023-04-19T11:47:47;100093.94;;;11.56;100.00
6200;BME280;3133;43.214;27.906;2023-04-19T11:50:31;100095.59;;;11.68;100.00
6200;BME280;3133;43.214;27.906;2023-04-19T11:53:01;100100.88;;;11.58;100.00
6200;BME280;3133;43.214;27.906;2023-04-19T11:55:35;100047.16;;;11.38;100.00
6200;BME280;3133;43.214;27.906;2023-04-19T11:58:02;99956.25;;;10.96;100.00
6200;BME280;3133;43.214;27.906;2023-04-19T12:00:34;100148.13;;;12.15;100.00
6200;BME280;3133;43.214;27.906;2023-04-19T12:03:02;100000.75;;;10.80;100.00
6200;BME280;3133;43.214;27.906;2023-04-19T12:05:29;100144.16;;;11.85;100.00
6200;BME280;3133;43.214;27.906;2023-04-19T12:08:06;100114.56;;;11.82;100.00
6200;BME280;3133;43.214;27.906;2023-04-19T12:10:34;100143.03;;;12.04;100.00
6200;BME280;3133;43.214;27.906;2023-04-19T12:13:15;100014.09;;;11.34;100.00
6200;BME280;3133;43.214;27.906;2023-04-19T12:15:43;100072.75;;;11.85;100.00
6200;BME280;3133;43.214;27.906;2023-04-19T12:18:12;100125.25;;;12.30;100.00
6200;BME280;3133;43.214;27.906;2023-04-19T12:20:43;100111.16;;;12.42;100.00
6200;BME280;3133;43.214;27.906;2023-04-19T12:23:11;100127.38;;;12.65;100.00
6200;BME280;3133;43.214;27.906;2023-04-19T12:25:39;100090.69;;;12.70;100.00
6200;BME280;3133;43.214;27.906;2023-04-19T12:28:06;100076.78;;;12.68;100.00
6200;BME280;3133;43.214;27.906;2023-04-19T12:30:34;100122.22;;;12.61;100.00
6200;BME280;3133;43.214;27.906;2023-04-19T12:33:01;100117.84;;;12.61;100.00
6200;BME280;3133;43.214;27.906;2023-04-19T12:35:29;100129.50;;;12.98;100.00
6200;BME280;3133;43.214;27.906;2023-04-19T12:37:58;100118.94;;;13.01;100.00
6200;BME280;3133;43.214;27.906;2023-04-19T12:40:39;100018.53;;;12.58;100.00
6200;BME280;3133;43.214;27.906;2023-04-19T12:43:06;100114.25;;;13.23;100.00
6200;BME280;3133;43.214;27.906;2023-04-19T12:45:37;100114.13;;;13.31;100.00
6200;BME280;3133;43.214;27.906;2023-04-19T12:48:05;100086.66;;;13.02;100.00
6200;BME280;3133;43.214;27.906;2023-04-19T12:50:34;100117.28;;;12.97;100.00
6200;BME280;3133;43.214;27.906;2023-04-19T12:53:01;100115.84;;;12.78;100.00
6200;BME280;3133;43.214;27.906;2023-04-19T12:55:28;100116.31;;;13.03;100.00
6200;BME280;3133;43.214;27.906;2023-04-19T12:57:56;100120.69;;;13.05;100.00
6200;BME280;3133;43.214;27.906;2023-04-19T13:00:23;100043.72;;;12.62;100.00
6200;BME280;3133;43.214;27.906;2023-04-19T13:02:51;100115.38;;;13.08;100.00
6200;BME280;3133;43.214;27.906;2023-04-19T13:05:26;99972.88;;;12.24;100.00
6200;BME280;3133;43.214;27.906;2023-04-19T13:08:06;100075.06;;;12.65;100.00
6200;BME280;3133;43.214;27.906;2023-04-19T13:10:34;100110.53;;;12.83;100.00
6200;BME280;3133;43.214;27.906;2023-04-19T13:13:01;100106.22;;;12.80;100.00